sensor_id;sensor_type;location;lat;lon;timestamp;P1;durP1;ratioP1;P2;durP2;ratioP2
4597;SDS011;62772;48.646;8.906;2023-06-10T00:03:38;13.00;;;8.80;;
4597;SDS011;62772;48.646;8.906;2023-06-10T00:08:39;13.70;;;8.80;;
4597;SDS011;62772;48.646;8.906;2023-06-10T00:13:41;13.40;;;8.80;;
4597;SDS011;62772;48.646;8.906;2023-06-10T00:18:41;19.03;;;8.40;;
4597;SDS011;62772;48.646;8.906;2023-06-10T00:23:43;13.67;;;9.70;;
4597;SDS011;62772;48.646;8.906;2023-06-10T00:28:44;13.23;;;9.60;;
4597;SDS011;62772;48.646;8.906;2023-06-10T00:33:45;14.93;;;9.77;;
4597;SDS011;62772;48.646;8.906;2023-06-10T00:38:45;14.80;;;10.00;;
4597;SDS011;62772;48.646;8.906;2023-06-10T00:43:46;16.13;;;10.17;;
4597;SDS011;62772;48.646;8.906;2023-06-10T00:48:46;12.57;;;8.90;;
4597;SDS011;62772;48.646;8.906;2023-06-10T00:53:47;13.80;;;9.20;;
4597;SDS011;62772;48.646;8.906;2023-06-10T00:58:48;11.73;;;8.77;;
4597;SDS011;62772;48.646;8.906;2023-06-10T01:03:49;12.77;;;8.57;;
4597;SDS011;62772;48.646;8.906;2023-06-10T01:08:55;12.67;;;9.20;;
4597;SDS011;62772;48.646;8.906;2023-06-10T01:14:00;11.90;;;8.80;;
4597;SDS011;62772;48.646;8.906;2023-06-10T01:19:01;14.50;;;9.43;;
4597;SDS011;62772;48.646;8.906;2023-06-10T01:24:02;14.50;;;9.37;;
4597;SDS011;62772;48.646;8.906;2023-06-10T01:29:14;13.50;;;9.63;;
4597;SDS011;62772;48.646;8.906;2023-06-10T01:34:20;14.70;;;8.70;;
4597;SDS011;62772;48.646;8.906;2023-06-10T01:39:23;15.83;;;10.30;;
4597;SDS011;62772;48.646;8.906;2023-06-10T01:44:25;15.63;;;10.57;;
4597;SDS011;62772;48.646;8.906;2023-06-10T01:49:25;13.60;;;10.47;;
4597;SDS011;62772;48.646;8.906;2023-06-10T01:54:26;12.40;;;9.17;;
4597;SDS011;62772;48.646;8.906;2023-06-10T01:59:27;14.37;;;9.90;;
4597;SDS011;62772;48.646;8.906;2023-06-10T02:04:30;14.03;;;9.70;;
4597;SDS011;62772;48.646;8.906;2023-06-10T02:09:32;13.00;;;9.07;;
4597;SDS011;62772;48.646;8.906;2023-06-10T02:14:35;14.07;;;9.70;;
4597;SDS011;62772;48.646;8.906;2023-06-10T02:19:36;14.27;;;9.13;;
4597;SDS011;62772;48.646;8.906;2023-06-10T02:24:37;14.10;;;9.73;;
4597;SDS011;62772;48.646;8.906;2023-06-10T02:29:38;13.33;;;10.03;;
4597;SDS011;62772;48.646;8.906;2023-06-10T02:34:38;13.93;;;9.43;;
4597;SDS011;62772;48.646;8.906;2023-06-10T02:39:40;13.57;;;9.60;;
4597;SDS011;62772;48.646;8.906;2023-06-10T02:44:44;15.20;;;10.47;;
4597;SDS011;62772;48.646;8.906;2023-06-10T02:49:50;17.20;;;11.13;;
4597;SDS011;62772;48.646;8.906;2023-06-10T02:54:51;14.73;;;10.13;;
4597;SDS011;62772;48.646;8.906;2023-06-10T02:59:51;17.17;;;10.40;;
4597;SDS011;62772;48.646;8.906;2023-06-10T03:04:55;15.83;;;10.03;;
4597;SDS011;62772;48.646;8.906;2023-06-10T03:09:56;14.27;;;9.83;;
4597;SDS011;62772;48.646;8.906;2023-06-10T03:14:57;13.00;;;9.77;;
4597;SDS011;62772;48.646;8.906;2023-06-10T03:19:58;13.60;;;10.20;;
4597;SDS011;62772;48.646;8.906;2023-06-10T03:24:58;16.17;;;9.40;;
4597;SDS011;62772;48.646;8.906;2023-06-10T03:30:02;22.83;;;11.03;;
4597;SDS011;62772;48.646;8.906;2023-06-10T03:35:04;15.30;;;10.40;;
4597;SDS011;62772;48.646;8.906;2023-06-10T03:40:09;14.57;;;10.53;;
4597;SDS011;62772;48.646;8.906;2023-06-10T03:45:12;20.83;;;10.17;;
4597;SDS011;62772;48.646;8.906;2023-06-10T03:50:13;13.60;;;9.60;;
4597;SDS011;62772;48.646;8.906;2023-06-10T03:55:17;21.87;;;11.33;;
4597;SDS011;62772;48.646;8.906;2023-06-10T04:00:19;15.50;;;10.53;;
4597;SDS011;62772;48.646;8.906;2023-06-10T04:05:21;15.30;;;10.70;;
4597;SDS011;62772;48.646;8.906;2023-06-10T04:10:22;15.90;;;11.03;;
4597;SDS011;62772;48.646;8.906;2023-06-10T04:15:22;14.67;;;10.17;;
4597;SDS011;62772;48.646;8.906;2023-06-10T04:20:24;17.70;;;12.27;;
4597;SDS011;62772;48.646;8.906;2023-06-10T04:25:26;13.90;;;10.50;;
4597;SDS011;62772;48.646;8.906;2023-06-10T04:30:28;15.93;;;10.97;;
4597;SDS011;62772;48.646;8.906;2023-06-10T04:35:28;14.97;;;10.80;;
4597;SDS011;62772;48.646;8.906;2023-06-10T04:40:31;14.27;;;10.40;;
4597;SDS011;62772;48.646;8.906;2023-06-10T04:45:32;13.77;;;10.20;;
4597;SDS011;62772;48.646;8.906;2023-06-10T04:50:33;14.47;;;10.43;;
4597;SDS011;62772;48.646;8.906;2023-06-10T04:55:34;15.37;;;10.60;;
4597;SDS011;62772;48.646;8.906;2023-06-10T05:00:34;13.77;;;10.20;;
4597;SDS011;62772;48.646;8.906;2023-06-10T05:05:35;15.30;;;10.20;;
4597;SDS011;62772;48.646;8.906;2023-06-10T05:10:35;13.23;;;9.63;;
4597;SDS011;62772;48.646;8.906;2023-06-10T05:15:35;14.13;;;10.00;;
4597;SDS011;62772;48.646;8.906;2023-06-10T05:20:37;14.23;;;10.03;;
4597;SDS011;62772;48.646;8.906;2023-06-10T05:25:37;15.00;;;10.63;;
4597;SDS011;62772;48.646;8.906;2023-06-10T05:30:38;16.37;;;10.67;;
4597;SDS011;62772;48.646;8.906;2023-06-10T05:35:38;14.20;;;9.67;;
4597;SDS011;62772;48.646;8.906;2023-06-10T05:40:39;14.40;;;9.40;;
4597;SDS011;62772;48.646;8.906;2023-06-10T05:45:40;14.30;;;9.80;;
4597;SDS011;62772;48.646;8.906;2023-06-10T05:50:40;13.97;;;9.57;;
4597;SDS011;62772;48.646;8.906;2023-06-10T05:55:43;13.57;;;9.10;;
4597;SDS011;62772;48.646;8.906;2023-06-10T06:00:44;12.70;;;8.70;;
4597;SDS011;62772;48.646;8.906;2023-06-10T06:05:44;14.87;;;8.77;;
4597;SDS011;62772;48.646;8.906;2023-06-10T06:10:46;13.00;;;8.00;;
4597;SDS011;62772;48.646;8.906;2023-06-10T06:15:47;11.27;;;7.93;;
4597;SDS011;62772;48.646;8.906;2023-06-10T06:20:49;10.80;;;7.60;;
4597;SDS011;62772;48.646;8.906;2023-06-10T06:25:50;10.17;;;7.70;;
4597;SDS011;62772;48.646;8.906;2023-06-10T06:30:50;12.97;;;8.10;;
4597;SDS011;62772;48.646;8.906;2023-06-10T06:35:51;11.20;;;7.60;;
4597;SDS011;62772;48.646;8.906;2023-06-10T06:40:51;10.60;;;7.47;;
4597;SDS011;62772;48.646;8.906;2023-06-10T06:45:51;13.47;;;8.33;;
4597;SDS011;62772;48.646;8.906;2023-06-10T06:50:52;9.03;;;6.73;;
4597;SDS011;62772;48.646;8.906;2023-06-10T06:55:53;11.67;;;7.93;;
4597;SDS011;62772;48.646;8.906;2023-06-10T07:00:53;12.30;;;8.70;;
4597;SDS011;62772;48.646;8.906;2023-06-10T07:05:55;10.83;;;7.53;;
4597;SDS011;62772;48.646;8.906;2023-06-10T07:10:56;11.80;;;7.60;;
4597;SDS011;62772;48.646;8.906;2023-06-10T07:15:56;11.77;;;7.93;;
4597;SDS011;62772;48.646;8.906;2023-06-10T07:20:57;9.77;;;7.50;;
4597;SDS011;62772;48.646;8.906;2023-06-10T07:25:57;11.53;;;7.27;;
4597;SDS011;62772;48.646;8.906;2023-06-10T07:30:58;10.90;;;7.10;;
4597;SDS011;62772;48.646;8.906;2023-06-10T07:35:58;10.93;;;7.47;;
4597;SDS011;62772;48.646;8.906;2023-06-10T07:40:59;10.67;;;7.00;;
4597;SDS011;62772;48.646;8.906;2023-06-10T07:45:59;10.40;;;6.57;;
4597;SDS011;62772;48.646;8.906;2023-06-10T07:51:00;9.20;;;6.27;;
4597;SDS011;62772;48.646;8.906;2023-06-10T07:56:00;7.57;;;5.87;;
4597;SDS011;62772;48.646;8.906;2023-06-10T08:01:01;7.27;;;5.70;;
4597;SDS011;62772;48.646;8.906;2023-06-10T08:06:01;7.33;;;5.33;;
4597;SDS011;62772;48.646;8.906;2023-06-10T08:11:02;8.90;;;5.70;;
4597;SDS011;62772;48.646;8.906;2023-06-10T08:16:03;9.13;;;5.40;;
4597;SDS011;62772;48.646;8.906;2023-06-10T08:21:04;7.87;;;5.47;;
4597;SDS011;62772;48.646;8.906;2023-06-10T08:26:05;8.07;;;6.03;;
4597;SDS011;62772;48.646;8.906;2023-06-10T08:31:05;8.13;;;5.87;;
4597;SDS011;62772;48.646;8.906;2023-06-10T08:36:06;9.70;;;5.40;;
4597;SDS011;62772;48.646;8.906;2023-06-10T08:41:06;9.80;;;5.40;;
4597;SDS011;62772;48.646;8.906;2023-06-10T08:46:08;6.50;;;5.10;;
4597;SDS011;62772;48.646;8.906;2023-06-10T08:51:12;7.30;;;5.63;;
4597;SDS011;62772;48.646;8.906;2023-06-10T08:56:14;8.60;;;5.40;;
4597;SDS011;62772;48.646;8.906;2023-06-10T09:01:16;9.97;;;5.77;;
4597;SDS011;62772;48.646;8.906;2023-06-10T09:06:18;10.40;;;6.23;;
4597;SDS011;62772;48.646;8.906;2023-06-10T09:11:19;11.07;;;6.47;;
4597;SDS011;62772;48.646;8.906;2023-06-10T09:16:19;10.00;;;6.10;;
4597;SDS011;62772;48.646;8.906;2023-06-10T09:21:23;8.13;;;5.80;;
4597;SDS011;62772;48.646;8.906;2023-06-10T09:26:27;8.83;;;5.70;;
4597;SDS011;62772;48.646;8.906;2023-06-10T09:31:29;11.00;;;6.00;;
4597;SDS011;62772;48.646;8.906;2023-06-10T09:36:29;8.60;;;5.80;;
4597;SDS011;62772;48.646;8.906;2023-06-10T09:41:32;7.33;;;5.90;;
4597;SDS011;62772;48.646;8.906;2023-06-10T09:46:39;7.07;;;5.10;;
4597;SDS011;62772;48.646;8.906;2023-06-10T09:51:50;7.70;;;4.83;;
4597;SDS011;62772;48.646;8.906;2023-06-10T09:56:51;6.67;;;4.83;;
4597;SDS011;62772;48.646;8.906;2023-06-10T10:01:54;6.23;;;5.00;;
4597;SDS011;62772;48.646;8.906;2023-06-10T10:06:55;6.97;;;4.50;;
4597;SDS011;62772;48.646;8.906;2023-06-10T10:11:56;6.53;;;5.00;;
4597;SDS011;62772;48.646;8.906;2023-06-10T10:16:58;6.67;;;4.80;;
4597;SDS011;62772;48.646;8.906;2023-06-10T10:22:04;8.30;;;4.67;;
4597;SDS011;62772;48.646;8.906;2023-06-10T10:27:17;7.43;;;4.97;;
4597;SDS011;62772;48.646;8.906;2023-06-10T10:32:23;6.75;;;5.20;;
4597;SDS011;62772;48.646;8.906;2023-06-10T10:37:32;12.67;;;5.30;;
4597;SDS011;62772;48.646;8.906;2023-06-10T10:42:33;9.07;;;5.67;;
4597;SDS011;62772;48.646;8.906;2023-06-10T10:47:35;10.70;;;5.20;;
4597;SDS011;62772;48.646;8.906;2023-06-10T10:52:50;10.00;;;5.27;;
4597;SDS011;62772;48.646;8.906;2023-06-10T10:58:07;7.10;;;5.27;;
4597;SDS011;62772;48.646;8.906;2023-06-10T11:03:14;7.60;;;5.35;;
4597;SDS011;62772;48.646;8.906;2023-06-10T11:08:52;7.53;;;4.82;;
4597;SDS011;62772;48.646;8.906;2023-06-10T11:19:04;6.68;;;5.25;;
4597;SDS011;62772;48.646;8.906;2023-06-10T11:24:13;7.70;;;4.78;;
4597;SDS011;62772;48.646;8.906;2023-06-10T11:29:14;8.02;;;5.50;;
4597;SDS011;62772;48.646;8.906;2023-06-10T11:40:12;5.95;;;4.45;;
4597;SDS011;62772;48.646;8.906;2023-06-10T11:45:16;6.95;;;4.72;;
4597;SDS011;62772;48.646;8.906;2023-06-10T11:50:27;7.10;;;5.00;;
4597;SDS011;62772;48.646;8.906;2023-06-10T11:55:44;6.72;;;5.05;;
4597;SDS011;62772;48.646;8.906;2023-06-10T12:00:50;6.85;;;5.20;;
4597;SDS011;62772;48.646;8.906;2023-06-10T12:10:58;8.15;;;5.65;;
4597;SDS011;62772;48.646;8.906;2023-06-10T12:16:06;8.38;;;5.22;;
4597;SDS011;62772;48.646;8.906;2023-06-10T12:21:19;5.97;;;4.28;;
4597;SDS011;62772;48.646;8.906;2023-06-10T12:26:33;7.93;;;5.70;;
4597;SDS011;62772;48.646;8.906;2023-06-10T12:31:56;6.38;;;5.05;;
4597;SDS011;62772;48.646;8.906;2023-06-10T12:37:00;6.15;;;5.10;;
4597;SDS011;62772;48.646;8.906;2023-06-10T12:42:04;7.97;;;5.38;;
4597;SDS011;62772;48.646;8.906;2023-06-10T12:47:09;7.55;;;5.35;;
4597;SDS011;62772;48.646;8.906;2023-06-10T12:52:12;7.05;;;5.20;;
4597;SDS011;62772;48.646;8.906;2023-06-10T12:57:12;5.88;;;4.78;;
4597;SDS011;62772;48.646;8.906;2023-06-10T13:02:13;7.07;;;5.15;;
4597;SDS011;62772;48.646;8.906;2023-06-10T13:07:13;8.25;;;5.03;;
4597;SDS011;62772;48.646;8.906;2023-06-10T13:12:14;7.95;;;5.57;;
4597;SDS011;62772;48.646;8.906;2023-06-10T13:17:14;7.78;;;5.10;;
4597;SDS011;62772;48.646;8.906;2023-06-10T13:22:14;7.20;;;4.78;;
4597;SDS011;62772;48.646;8.906;2023-06-10T13:27:15;6.20;;;4.90;;
4597;SDS011;62772;48.646;8.906;2023-06-10T13:32:15;6.97;;;5.45;;
4597;SDS011;62772;48.646;8.906;2023-06-10T13:37:16;9.45;;;5.90;;
4597;SDS011;62772;48.646;8.906;2023-06-10T13:42:19;7.97;;;5.60;;
4597;SDS011;62772;48.646;8.906;2023-06-10T13:47:20;7.20;;;5.45;;
4597;SDS011;62772;48.646;8.906;2023-06-10T13:52:21;7.05;;;4.63;;
4597;SDS011;62772;48.646;8.906;2023-06-10T13:57:21;8.00;;;5.13;;
4597;SDS011;62772;48.646;8.906;2023-06-10T14:02:22;6.78;;;5.25;;
4597;SDS011;62772;48.646;8.906;2023-06-10T14:07:22;8.70;;;5.00;;
4597;SDS011;62772;48.646;8.906;2023-06-10T14:12:22;6.22;;;4.55;;
4597;SDS011;62772;48.646;8.906;2023-06-10T14:17:23;9.43;;;4.43;;
4597;SDS011;62772;48.646;8.906;2023-06-10T14:22:23;6.35;;;4.53;;
4597;SDS011;62772;48.646;8.906;2023-06-10T14:27:24;7.55;;;4.72;;
4597;SDS011;62772;48.646;8.906;2023-06-10T14:32:25;9.05;;;4.97;;
4597;SDS011;62772;48.646;8.906;2023-06-10T14:37:25;6.93;;;4.95;;
4597;SDS011;62772;48.646;8.906;2023-06-10T14:42:26;6.43;;;4.50;;
4597;SDS011;62772;48.646;8.906;2023-06-10T14:47:26;6.88;;;4.88;;
4597;SDS011;62772;48.646;8.906;2023-06-10T14:52:27;5.22;;;4.20;;
4597;SDS011;62772;48.646;8.906;2023-06-10T14:57:27;6.97;;;5.13;;
4597;SDS011;62772;48.646;8.906;2023-06-10T15:02:28;7.30;;;5.22;;
4597;SDS011;62772;48.646;8.906;2023-06-10T15:07:28;8.93;;;4.45;;
4597;SDS011;62772;48.646;8.906;2023-06-10T15:12:29;6.43;;;4.53;;
4597;SDS011;62772;48.646;8.906;2023-06-10T15:17:29;5.60;;;4.53;;
4597;SDS011;62772;48.646;8.906;2023-06-10T15:22:29;8.65;;;5.50;;
4597;SDS011;62772;48.646;8.906;2023-06-10T15:27:30;6.00;;;4.85;;
4597;SDS011;62772;48.646;8.906;2023-06-10T15:32:30;5.22;;;4.40;;
4597;SDS011;62772;48.646;8.906;2023-06-10T15:37:31;5.57;;;4.45;;
4597;SDS011;62772;48.646;8.906;2023-06-10T15:42:31;5.70;;;4.18;;
4597;SDS011;62772;48.646;8.906;2023-06-10T15:47:31;8.48;;;5.38;;
4597;SDS011;62772;48.646;8.906;2023-06-10T15:52:32;6.00;;;4.70;;
4597;SDS011;62772;48.646;8.906;2023-06-10T15:57:32;7.60;;;4.78;;
4597;SDS011;62772;48.646;8.906;2023-06-10T16:02:33;6.30;;;5.10;;
4597;SDS011;62772;48.646;8.906;2023-06-10T16:07:34;6.30;;;5.10;;
4597;SDS011;62772;48.646;8.906;2023-06-10T16:12:34;6.88;;;5.22;;
4597;SDS011;62772;48.646;8.906;2023-06-10T16:17:35;8.25;;;5.00;;
4597;SDS011;62772;48.646;8.906;2023-06-10T16:22:35;6.35;;;5.30;;
4597;SDS011;62772;48.646;8.906;2023-06-10T16:27:36;6.68;;;4.97;;
4597;SDS011;62772;48.646;8.906;2023-06-10T16:32:37;13.10;;;9.18;;
4597;SDS011;62772;48.646;8.906;2023-06-10T16:37:37;15.57;;;10.77;;
4597;SDS011;62772;48.646;8.906;2023-06-10T16:42:37;12.40;;;8.55;;
4597;SDS011;62772;48.646;8.906;2023-06-10T16:47:38;7.85;;;5.75;;
4597;SDS011;62772;48.646;8.906;2023-06-10T16:52:38;7.28;;;4.97;;
4597;SDS011;62772;48.646;8.906;2023-06-10T16:57:39;8.13;;;5.82;;
4597;SDS011;62772;48.646;8.906;2023-06-10T17:02:39;16.85;;;10.20;;
4597;SDS011;62772;48.646;8.906;2023-06-10T17:07:40;20.65;;;12.82;;
4597;SDS011;62772;48.646;8.906;2023-06-10T17:12:40;7.82;;;5.70;;
4597;SDS011;62772;48.646;8.906;2023-06-10T17:17:41;6.72;;;4.82;;
4597;SDS011;62772;48.646;8.906;2023-06-10T17:22:41;5.93;;;4.40;;
4597;SDS011;62772;48.646;8.906;2023-06-10T17:27:42;10.63;;;4.70;;
4597;SDS011;62772;48.646;8.906;2023-06-10T17:32:42;7.15;;;4.30;;
4597;SDS011;62772;48.646;8.906;2023-06-10T17:37:44;9.80;;;6.38;;
4597;SDS011;62772;48.646;8.906;2023-06-10T17:42:44;7.00;;;4.75;;
4597;SDS011;62772;48.646;8.906;2023-06-10T17:47:45;6.95;;;4.50;;
4597;SDS011;62772;48.646;8.906;2023-06-10T17:52:45;6.55;;;4.07;;
4597;SDS011;62772;48.646;8.906;2023-06-10T17:57:45;5.82;;;4.35;;
4597;SDS011;62772;48.646;8.906;2023-06-10T18:02:46;4.65;;;3.88;;
4597;SDS011;62772;48.646;8.906;2023-06-10T18:07:46;8.93;;;4.38;;
4597;SDS011;62772;48.646;8.906;2023-06-10T18:12:47;5.68;;;4.07;;
4597;SDS011;62772;48.646;8.906;2023-06-10T18:17:47;6.53;;;4.13;;
4597;SDS011;62772;48.646;8.906;2023-06-10T18:22:48;5.72;;;4.10;;
4597;SDS011;62772;48.646;8.906;2023-06-10T18:27:49;6.78;;;4.60;;
4597;SDS011;62772;48.646;8.906;2023-06-10T18:32:50;6.40;;;4.68;;
4597;SDS011;62772;48.646;8.906;2023-06-10T18:37:50;6.22;;;4.38;;
4597;SDS011;62772;48.646;8.906;2023-06-10T18:42:50;7.03;;;4.90;;
4597;SDS011;62772;48.646;8.906;2023-06-10T18:47:51;10.88;;;5.60;;
4597;SDS011;62772;48.646;8.906;2023-06-10T18:52:52;10.88;;;6.85;;
4597;SDS011;62772;48.646;8.906;2023-06-10T18:57:53;6.95;;;4.93;;
4597;SDS011;62772;48.646;8.906;2023-06-10T19:02:53;6.53;;;4.88;;
4597;SDS011;62772;48.646;8.906;2023-06-10T19:07:54;6.72;;;4.45;;
4597;SDS011;62772;48.646;8.906;2023-06-10T19:12:55;7.75;;;4.18;;
4597;SDS011;62772;48.646;8.906;2023-06-10T19:17:55;7.70;;;4.32;;
4597;SDS011;62772;48.646;8.906;2023-06-10T19:22:56;6.00;;;4.20;;
4597;SDS011;62772;48.646;8.906;2023-06-10T19:27:56;6.90;;;4.60;;
4597;SDS011;62772;48.646;8.906;2023-06-10T19:32:56;6.50;;;4.13;;
4597;SDS011;62772;48.646;8.906;2023-06-10T19:37:57;7.43;;;4.63;;
4597;SDS011;62772;48.646;8.906;2023-06-10T19:42:57;6.60;;;4.45;;
4597;SDS011;62772;48.646;8.906;2023-06-10T19:47:58;5.82;;;4.38;;
4597;SDS011;62772;48.646;8.906;2023-06-10T19:52:59;8.45;;;4.85;;
4597;SDS011;62772;48.646;8.906;2023-06-10T19:57:59;6.68;;;4.55;;
4597;SDS011;62772;48.646;8.906;2023-06-10T20:03:00;7.32;;;5.00;;
4597;SDS011;62772;48.646;8.906;2023-06-10T20:08:00;6.97;;;4.72;;
4597;SDS011;62772;48.646;8.906;2023-06-10T20:13:01;6.80;;;4.53;;
4597;SDS011;62772;48.646;8.906;2023-06-10T20:18:01;7.40;;;5.40;;
4597;SDS011;62772;48.646;8.906;2023-06-10T20:23:02;7.60;;;5.10;;
4597;SDS011;62772;48.646;8.906;2023-06-10T20:28:02;7.90;;;4.82;;
4597;SDS011;62772;48.646;8.906;2023-06-10T20:33:03;7.05;;;5.22;;
4597;SDS011;62772;48.646;8.906;2023-06-10T20:38:04;7.60;;;5.27;;
4597;SDS011;62772;48.646;8.906;2023-06-10T20:43:05;7.33;;;5.00;;
4597;SDS011;62772;48.646;8.906;2023-06-10T20:48:05;8.93;;;6.43;;
4597;SDS011;62772;48.646;8.906;2023-06-10T20:53:06;10.17;;;5.57;;
4597;SDS011;62772;48.646;8.906;2023-06-10T20:58:06;8.20;;;5.50;;
4597;SDS011;62772;48.646;8.906;2023-06-10T21:03:07;8.63;;;6.17;;
4597;SDS011;62772;48.646;8.906;2023-06-10T21:08:07;8.10;;;5.67;;
4597;SDS011;62772;48.646;8.906;2023-06-10T21:13:08;7.83;;;5.70;;
4597;SDS011;62772;48.646;8.906;2023-06-10T21:18:09;15.33;;;9.60;;
4597;SDS011;62772;48.646;8.906;2023-06-10T21:23:10;11.40;;;6.80;;
4597;SDS011;62772;48.646;8.906;2023-06-10T21:28:11;9.90;;;6.63;;
4597;SDS011;62772;48.646;8.906;2023-06-10T21:33:12;59.27;;;32.93;;
4597;SDS011;62772;48.646;8.906;2023-06-10T21:38:12;29.53;;;20.20;;
4597;SDS011;62772;48.646;8.906;2023-06-10T21:43:13;29.40;;;18.90;;
4597;SDS011;62772;48.646;8.906;2023-06-10T21:48:13;10.53;;;7.33;;
4597;SDS011;62772;48.646;8.906;2023-06-10T21:53:13;9.10;;;6.30;;
4597;SDS011;62772;48.646;8.906;2023-06-10T21:58:14;10.30;;;7.10;;
4597;SDS011;62772;48.646;8.906;2023-06-10T22:03:15;30.10;;;19.80;;
4597;SDS011;62772;48.646;8.906;2023-06-10T22:08:15;9.37;;;7.10;;
4597;SDS011;62772;48.646;8.906;2023-06-10T22:13:16;10.40;;;7.03;;
4597;SDS011;62772;48.646;8.906;2023-06-10T22:18:18;9.60;;;7.07;;
4597;SDS011;62772;48.646;8.906;2023-06-10T22:23:19;10.10;;;6.83;;
4597;SDS011;62772;48.646;8.906;2023-06-10T22:28:20;19.33;;;6.93;;
4597;SDS011;62772;48.646;8.906;2023-06-10T22:33:20;8.77;;;7.03;;
4597;SDS011;62772;48.646;8.906;2023-06-10T22:38:21;8.83;;;6.60;;
4597;SDS011;62772;48.646;8.906;2023-06-10T22:43:21;11.03;;;7.90;;
4597;SDS011;62772;48.646;8.906;2023-06-10T22:48:22;15.07;;;8.23;;
4597;SDS011;62772;48.646;8.906;2023-06-10T22:53:22;12.30;;;8.20;;
4597;SDS011;62772;48.646;8.906;2023-06-10T22:58:22;13.87;;;8.30;;
4597;SDS011;62772;48.646;8.906;2023-06-10T23:03:23;10.70;;;7.93;;
4597;SDS011;62772;48.646;8.906;2023-06-10T23:08:23;10.20;;;7.60;;
4597;SDS011;62772;48.646;8.906;2023-06-10T23:13:24;12.63;;;8.57;;
4597;SDS011;62772;48.646;8.906;2023-06-10T23:18:24;13.30;;;8.80;;
4597;SDS011;62772;48.646;8.906;2023-06-10T23:23:25;12.73;;;8.40;;
4597;SDS011;62772;48.646;8.906;2023-06-10T23:28:33;10.60;;;7.33;;
4597;SDS011;62772;48.646;8.906;2023-06-10T23:33:33;11.33;;;8.37;;
4597;SDS011;62772;48.646;8.906;2023-06-10T23:38:34;11.37;;;8.07;;
4597;SDS011;62772;48.646;8.906;2023-06-10T23:43:36;14.60;;;8.10;;
4597;SDS011;62772;48.646;8.906;2023-06-10T23:48:36;12.97;;;8.07;;
4597;SDS011;62772;48.646;8.906;2023-06-10T23:53:37;14.30;;;8.30;;
4597;SDS011;62772;48.646;8.906;2023-06-10T23:58:37;13.03;;;8.07;;
